createdAt,value
2023-01-23T00:03:10.189Z,6.16
2023-01-23T00:08:17.965Z,6.12
2023-01-23T00:13:23.553Z,6.04
2023-01-23T09:03:47.521Z,4.32
2023-01-23T09:08:52.741Z,5.07
2023-01-23T09:13:58.076Z,5.51
2023-01-23T09:19:05.745Z,5.80
2023-01-23T09:24:11.372Z,6.04
2023-01-23T09:29:17.593Z,6.24
2023-01-23T09:34:25.249Z,6.32
2023-01-23T09:39:30.525Z,6.41
2023-01-23T09:44:39.590Z,6.47
2023-01-23T09:49:50.078Z,6.58
2023-01-23T09:54:58.495Z,6.76
2023-01-23T10:00:08.107Z,6.80
2023-01-23T10:05:19.312Z,6.76
2023-01-23T10:10:56.331Z,6.77
2023-01-23T10:16:13.678Z,6.73
2023-01-23T10:21:28.262Z,6.81
2023-01-23T10:26:35.868Z,6.92
2023-01-23T10:31:42.562Z,7.03
2023-01-23T10:37:02.040Z,7.20
2023-01-23T10:42:12.571Z,7.29
2023-01-23T10:47:22.845Z,7.39
2023-01-23T10:52:37.706Z,7.59
2023-01-23T10:57:49.243Z,7.59
2023-01-23T11:02:54.779Z,7.58
2023-01-23T11:08:02.919Z,7.64
2023-01-23T11:13:08.212Z,7.79
2023-01-23T11:18:34.520Z,8.03
2023-01-23T11:23:42.258Z,8.23
2023-01-23T11:28:51.492Z,8.49
2023-01-23T11:34:01.565Z,8.62
2023-01-23T11:39:17.019Z,8.70
2023-01-23T11:44:24.435Z,8.56
2023-01-23T11:49:43.461Z,8.45
2023-01-23T11:55:05.161Z,8.37
2023-01-23T12:00:26.176Z,8.37
2023-01-23T12:06:17.621Z,8.28
2023-01-23T12:11:27.231Z,8.29
2023-01-23T12:16:45.281Z,8.43
2023-01-23T12:21:55.250Z,8.50
2023-01-23T12:27:20.175Z,8.40
2023-01-23T12:32:38.935Z,8.42
2023-01-23T12:37:58.874Z,8.32
2023-01-23T12:43:11.560Z,8.27
2023-01-23T12:48:19.202Z,8.39
2023-01-23T12:53:26.519Z,8.49
2023-01-23T12:58:38.271Z,8.65
2023-01-23T13:03:57.529Z,8.61
2023-01-23T13:09:17.545Z,8.50
2023-01-23T13:15:06.866Z,8.52
2023-01-23T13:20:39.091Z,8.46
2023-01-23T13:25:44.174Z,8.33
2023-01-23T13:31:02.327Z,8.34
2023-01-23T13:36:16.411Z,8.30
2023-01-23T13:41:34.348Z,8.31
2023-01-23T14:20:23.766Z,8.20
2023-01-23T14:25:29.674Z,8.24
2023-01-23T14:30:34.827Z,8.19
2023-01-23T14:35:42.757Z,8.12
2023-01-23T14:40:50.977Z,8.03
2023-01-23T14:46:02.734Z,7.93
2023-01-23T14:51:21.203Z,7.95
2023-01-23T14:56:30.576Z,7.91
2023-01-23T15:01:36.485Z,7.81
2023-01-23T15:06:45.021Z,7.80
2023-01-23T15:11:50.299Z,7.68
2023-01-23T15:17:02.115Z,7.54
2023-01-23T15:22:22.022Z,7.43
2023-01-23T15:27:29.400Z,7.33
2023-01-23T15:32:35.658Z,7.21
2023-01-23T15:37:43.724Z,7.17
2023-01-23T15:43:04.179Z,7.13
2023-01-23T15:48:10.140Z,7.05
2023-01-23T15:53:18.789Z,6.96
2023-01-23T15:58:24.156Z,6.92
2023-01-23T16:03:29.586Z,6.90
2023-01-23T16:08:37.416Z,6.86
2023-01-23T16:13:42.692Z,6.81
2023-01-23T16:18:48.058Z,6.78
2023-01-23T16:23:56.500Z,6.76
2023-01-23T16:29:13.063Z,6.80
2023-01-23T16:34:19.363Z,6.82
2023-01-23T16:39:29.520Z,6.83
2023-01-23T16:44:35.027Z,6.78
2023-01-23T16:49:51.583Z,6.74
2023-01-23T16:55:00.301Z,6.70
2023-01-23T17:00:06.886Z,6.63
2023-01-23T17:05:13.451Z,6.66
2023-01-23T17:10:24.049Z,6.67
2023-01-23T17:15:31.564Z,6.65
2023-01-23T17:20:39.050Z,6.62
2023-01-23T17:25:59.820Z,6.68
2023-01-23T17:31:06.740Z,6.75
2023-01-23T17:36:12.367Z,6.78
2023-01-23T17:41:20.399Z,6.79
2023-01-23T17:46:27.476Z,6.82
2023-01-23T17:51:34.212Z,6.85
2023-01-23T17:56:42.283Z,6.81
2023-01-23T18:01:47.802Z,6.75
2023-01-23T18:06:53.202Z,6.69
2023-01-23T18:12:04.981Z,6.62
2023-01-23T18:17:23.058Z,6.66
2023-01-23T18:22:29.373Z,6.63
2023-01-23T18:27:37.531Z,6.66
2023-01-23T18:33:11.450Z,6.72
2023-01-23T18:38:20.278Z,6.63
2023-01-23T18:43:39.129Z,6.65
2023-01-23T18:48:45.661Z,6.67
2023-01-23T18:53:58.218Z,6.78
2023-01-23T18:59:16.392Z,6.82
2023-01-23T19:04:23.432Z,6.80
2023-01-23T19:09:30.809Z,6.75
2023-01-23T19:14:53.345Z,6.65
2023-01-23T19:20:04.055Z,6.65
2023-01-23T22:34:40.186Z,4.89
2023-01-23T22:39:45.309Z,5.61
2023-01-23T22:44:50.389Z,6.00
2023-01-23T22:49:58.059Z,6.24
2023-01-23T22:55:03.154Z,6.39
2023-01-23T23:00:10.734Z,6.51
2023-01-23T23:05:19.168Z,6.59
2023-01-23T23:10:24.324Z,7.51
2023-01-23T23:15:29.500Z,6.85
2023-01-23T23:20:37.243Z,6.77
2023-01-23T23:25:42.314Z,6.75
2023-01-23T23:30:47.375Z,6.75
2023-01-23T23:35:56.587Z,6.77
